sensor_id;sensor_type;location;lat;lon;timestamp;temperature;humidity
15930;DHT22;8064;51.142;4.780;2022-11-20T00:00:45;5.50;99.90
15930;DHT22;8064;51.142;4.780;2022-11-20T00:03:10;5.40;99.90
15930;DHT22;8064;51.142;4.780;2022-11-20T00:05:36;5.40;99.90
15930;DHT22;8064;51.142;4.780;2022-11-20T00:08:02;5.40;99.90
15930;DHT22;8064;51.142;4.780;2022-11-20T00:10:27;5.50;99.90
15930;DHT22;8064;51.142;4.780;2022-11-20T00:12:53;5.50;99.90
15930;DHT22;8064;51.142;4.780;2022-11-20T00:15:19;5.50;99.90
15930;DHT22;8064;51.142;4.780;2022-11-20T00:17:44;5.50;99.90
15930;DHT22;8064;51.142;4.780;2022-11-20T00:20:11;5.50;99.90
15930;DHT22;8064;51.142;4.780;2022-11-20T00:22:36;5.50;99.90
15930;DHT22;8064;51.142;4.780;2022-11-20T00:25:02;5.50;99.90
15930;DHT22;8064;51.142;4.780;2022-11-20T00:27:28;5.50;99.90
15930;DHT22;8064;51.142;4.780;2022-11-20T00:29:54;5.50;99.90
15930;DHT22;8064;51.142;4.780;2022-11-20T00:32:19;5.50;99.90
15930;DHT22;8064;51.142;4.780;2022-11-20T00:34:45;5.50;99.90
15930;DHT22;8064;51.142;4.780;2022-11-20T00:37:11;5.50;99.90
15930;DHT22;8064;51.142;4.780;2022-11-20T00:39:36;5.50;99.90
15930;DHT22;8064;51.142;4.780;2022-11-20T00:42:02;5.50;99.90
15930;DHT22;8064;51.142;4.780;2022-11-20T00:44:28;5.50;99.90
15930;DHT22;8064;51.142;4.780;2022-11-20T00:46:54;5.50;99.90
15930;DHT22;8064;51.142;4.780;2022-11-20T00:49:19;5.50;99.90
15930;DHT22;8064;51.142;4.780;2022-11-20T00:51:45;5.50;99.90
15930;DHT22;8064;51.142;4.780;2022-11-20T00:54:11;5.50;99.90
15930;DHT22;8064;51.142;4.780;2022-11-20T00:56:36;5.50;99.90
15930;DHT22;8064;51.142;4.780;2022-11-20T00:59:02;5.50;99.90
15930;DHT22;8064;51.142;4.780;2022-11-20T01:01:28;5.50;99.90
15930;DHT22;8064;51.142;4.780;2022-11-20T01:03:56;5.50;99.90
15930;DHT22;8064;51.142;4.780;2022-11-20T01:06:25;5.50;99.90
15930;DHT22;8064;51.142;4.780;2022-11-20T01:08:53;5.50;99.90
15930;DHT22;8064;51.142;4.780;2022-11-20T01:11:31;5.50;99.90
15930;DHT22;8064;51.142;4.780;2022-11-20T01:13:58;5.50;99.90
15930;DHT22;8064;51.142;4.780;2022-11-20T01:16:27;5.50;99.90
15930;DHT22;8064;51.142;4.780;2022-11-20T01:18:56;5.50;99.90
15930;DHT22;8064;51.142;4.780;2022-11-20T01:23:52;5.50;99.90
15930;DHT22;8064;51.142;4.780;2022-11-20T01:26:21;5.50;99.90
15930;DHT22;8064;51.142;4.780;2022-11-20T01:28:47;5.50;99.90
15930;DHT22;8064;51.142;4.780;2022-11-20T01:31:25;5.50;99.90
15930;DHT22;8064;51.142;4.780;2022-11-20T01:33:53;5.50;99.90
15930;DHT22;8064;51.142;4.780;2022-11-20T01:36:21;5.50;99.90
15930;DHT22;8064;51.142;4.780;2022-11-20T01:38:48;5.50;99.90
15930;DHT22;8064;51.142;4.780;2022-11-20T01:41:16;5.50;99.90
15930;DHT22;8064;51.142;4.780;2022-11-20T01:44:01;5.50;99.90
15930;DHT22;8064;51.142;4.780;2022-11-20T01:46:27;5.50;99.90
15930;DHT22;8064;51.142;4.780;2022-11-20T01:49:02;5.50;99.90
15930;DHT22;8064;51.142;4.780;2022-11-20T01:51:41;5.50;99.90
15930;DHT22;8064;51.142;4.780;2022-11-20T01:54:13;5.50;99.90
15930;DHT22;8064;51.142;4.780;2022-11-20T01:56:42;5.50;99.90
15930;DHT22;8064;51.142;4.780;2022-11-20T01:59:10;5.50;99.90
15930;DHT22;8064;51.142;4.780;2022-11-20T02:01:37;5.50;99.90
15930;DHT22;8064;51.142;4.780;2022-11-20T02:04:06;5.50;99.90
15930;DHT22;8064;51.142;4.780;2022-11-20T02:06:40;5.50;99.90
15930;DHT22;8064;51.142;4.780;2022-11-20T02:09:07;5.50;99.90
15930;DHT22;8064;51.142;4.780;2022-11-20T02:11:33;5.50;99.90
15930;DHT22;8064;51.142;4.780;2022-11-20T02:13:59;5.40;99.90
15930;DHT22;8064;51.142;4.780;2022-11-20T02:16:36;5.40;99.90
15930;DHT22;8064;51.142;4.780;2022-11-20T02:19:07;5.40;99.90
15930;DHT22;8064;51.142;4.780;2022-11-20T02:22:11;5.40;99.90
15930;DHT22;8064;51.142;4.780;2022-11-20T02:24:35;5.40;99.90
15930;DHT22;8064;51.142;4.780;2022-11-20T02:29:44;5.40;99.90
15930;DHT22;8064;51.142;4.780;2022-11-20T02:32:29;5.40;99.90
15930;DHT22;8064;51.142;4.780;2022-11-20T02:34:55;5.40;99.90
15930;DHT22;8064;51.142;4.780;2022-11-20T02:37:21;5.40;99.90
15930;DHT22;8064;51.142;4.780;2022-11-20T02:39:49;5.40;99.90
15930;DHT22;8064;51.142;4.780;2022-11-20T02:42:16;5.40;99.90
15930;DHT22;8064;51.142;4.780;2022-11-20T02:44:41;5.40;99.90
15930;DHT22;8064;51.142;4.780;2022-11-20T02:47:07;5.40;99.90
15930;DHT22;8064;51.142;4.780;2022-11-20T02:49:33;5.40;99.90
15930;DHT22;8064;51.142;4.780;2022-11-20T02:51:59;5.40;99.90
15930;DHT22;8064;51.142;4.780;2022-11-20T02:54:25;5.40;99.90
15930;DHT22;8064;51.142;4.780;2022-11-20T02:56:51;5.40;99.90
15930;DHT22;8064;51.142;4.780;2022-11-20T02:59:17;5.40;99.90
15930;DHT22;8064;51.142;4.780;2022-11-20T03:01:42;5.40;99.90
15930;DHT22;8064;51.142;4.780;2022-11-20T03:04:08;5.40;99.90
15930;DHT22;8064;51.142;4.780;2022-11-20T03:06:35;5.50;99.90
15930;DHT22;8064;51.142;4.780;2022-11-20T03:09:00;5.50;99.90
15930;DHT22;8064;51.142;4.780;2022-11-20T03:11:26;5.50;99.90
15930;DHT22;8064;51.142;4.780;2022-11-20T03:13:52;5.50;99.90
15930;DHT22;8064;51.142;4.780;2022-11-20T03:16:20;5.50;99.90
15930;DHT22;8064;51.142;4.780;2022-11-20T03:18:46;5.50;99.90
15930;DHT22;8064;51.142;4.780;2022-11-20T03:21:13;5.50;99.90
15930;DHT22;8064;51.142;4.780;2022-11-20T03:23:39;5.50;99.90
15930;DHT22;8064;51.142;4.780;2022-11-20T03:26:24;5.50;99.90
15930;DHT22;8064;51.142;4.780;2022-11-20T03:28:52;5.50;99.90
15930;DHT22;8064;51.142;4.780;2022-11-20T03:31:21;5.50;99.90
15930;DHT22;8064;51.142;4.780;2022-11-20T03:33:47;5.50;99.90
15930;DHT22;8064;51.142;4.780;2022-11-20T03:36:14;5.50;99.90
15930;DHT22;8064;51.142;4.780;2022-11-20T03:38:40;5.50;99.90
15930;DHT22;8064;51.142;4.780;2022-11-20T03:41:14;5.50;99.90
15930;DHT22;8064;51.142;4.780;2022-11-20T03:43:40;5.50;99.90
15930;DHT22;8064;51.142;4.780;2022-11-20T03:46:06;5.50;99.90
15930;DHT22;8064;51.142;4.780;2022-11-20T03:48:32;5.40;99.90
15930;DHT22;8064;51.142;4.780;2022-11-20T03:51:19;5.40;99.90
15930;DHT22;8064;51.142;4.780;2022-11-20T03:53:46;5.50;99.90
15930;DHT22;8064;51.142;4.780;2022-11-20T03:56:14;5.50;99.90
15930;DHT22;8064;51.142;4.780;2022-11-20T03:58:41;5.50;99.90
15930;DHT22;8064;51.142;4.780;2022-11-20T04:01:14;5.50;99.90
15930;DHT22;8064;51.142;4.780;2022-11-20T04:03:41;5.50;99.90
15930;DHT22;8064;51.142;4.780;2022-11-20T04:06:16;5.40;99.90
15930;DHT22;8064;51.142;4.780;2022-11-20T04:08:42;5.40;99.90
15930;DHT22;8064;51.142;4.780;2022-11-20T04:13:35;5.40;99.90
15930;DHT22;8064;51.142;4.780;2022-11-20T04:16:00;5.40;99.90
15930;DHT22;8064;51.142;4.780;2022-11-20T04:18:26;5.40;99.90
15930;DHT22;8064;51.142;4.780;2022-11-20T04:20:52;5.40;99.90
15930;DHT22;8064;51.142;4.780;2022-11-20T04:23:17;5.40;99.90
15930;DHT22;8064;51.142;4.780;2022-11-20T04:25:43;5.40;99.90
15930;DHT22;8064;51.142;4.780;2022-11-20T04:28:09;5.40;99.90
15930;DHT22;8064;51.142;4.780;2022-11-20T04:30:35;5.40;99.90
15930;DHT22;8064;51.142;4.780;2022-11-20T04:33:00;5.40;99.90
15930;DHT22;8064;51.142;4.780;2022-11-20T04:35:26;5.40;99.90
15930;DHT22;8064;51.142;4.780;2022-11-20T04:37:52;5.40;99.90
15930;DHT22;8064;51.142;4.780;2022-11-20T04:40:18;5.40;99.90
15930;DHT22;8064;51.142;4.780;2022-11-20T04:42:43;5.40;99.90
15930;DHT22;8064;51.142;4.780;2022-11-20T04:45:09;5.40;99.90
15930;DHT22;8064;51.142;4.780;2022-11-20T04:47:35;5.40;99.90
15930;DHT22;8064;51.142;4.780;2022-11-20T04:50:00;5.40;99.90
15930;DHT22;8064;51.142;4.780;2022-11-20T04:52:26;5.40;99.90
15930;DHT22;8064;51.142;4.780;2022-11-20T04:54:52;5.40;99.90
15930;DHT22;8064;51.142;4.780;2022-11-20T04:57:19;5.40;99.90
15930;DHT22;8064;51.142;4.780;2022-11-20T04:59:45;5.40;99.90
15930;DHT22;8064;51.142;4.780;2022-11-20T05:02:11;5.40;99.90
15930;DHT22;8064;51.142;4.780;2022-11-20T05:04:36;5.40;99.90
15930;DHT22;8064;51.142;4.780;2022-11-20T05:07:02;5.40;99.90
15930;DHT22;8064;51.142;4.780;2022-11-20T05:09:28;5.40;99.90
15930;DHT22;8064;51.142;4.780;2022-11-20T05:11:54;5.30;99.90
15930;DHT22;8064;51.142;4.780;2022-11-20T05:14:19;5.30;99.90
15930;DHT22;8064;51.142;4.780;2022-11-20T05:16:45;5.30;99.90
15930;DHT22;8064;51.142;4.780;2022-11-20T05:19:11;5.30;99.90
15930;DHT22;8064;51.142;4.780;2022-11-20T05:21:36;5.30;99.90
15930;DHT22;8064;51.142;4.780;2022-11-20T05:24:02;5.30;99.90
15930;DHT22;8064;51.142;4.780;2022-11-20T05:26:28;5.30;99.90
15930;DHT22;8064;51.142;4.780;2022-11-20T05:28:54;5.20;99.90
15930;DHT22;8064;51.142;4.780;2022-11-20T05:31:22;5.30;99.90
15930;DHT22;8064;51.142;4.780;2022-11-20T05:33:47;5.20;99.90
15930;DHT22;8064;51.142;4.780;2022-11-20T05:36:14;5.20;99.90
15930;DHT22;8064;51.142;4.780;2022-11-20T05:38:41;5.20;99.90
15930;DHT22;8064;51.142;4.780;2022-11-20T05:41:10;5.10;99.90
15930;DHT22;8064;51.142;4.780;2022-11-20T05:43:38;5.10;99.90
15930;DHT22;8064;51.142;4.780;2022-11-20T05:46:06;5.10;99.90
15930;DHT22;8064;51.142;4.780;2022-11-20T05:48:32;5.10;99.90
15930;DHT22;8064;51.142;4.780;2022-11-20T05:51:00;5.00;99.90
15930;DHT22;8064;51.142;4.780;2022-11-20T05:53:26;5.00;99.90
15930;DHT22;8064;51.142;4.780;2022-11-20T05:56:04;5.10;99.90
15930;DHT22;8064;51.142;4.780;2022-11-20T05:58:31;5.10;99.90
15930;DHT22;8064;51.142;4.780;2022-11-20T06:01:07;5.10;99.90
15930;DHT22;8064;51.142;4.780;2022-11-20T06:03:33;5.10;99.90
15930;DHT22;8064;51.142;4.780;2022-11-20T06:06:01;5.10;99.90
15930;DHT22;8064;51.142;4.780;2022-11-20T06:08:27;5.10;99.90
15930;DHT22;8064;51.142;4.780;2022-11-20T06:10:53;5.10;99.90
15930;DHT22;8064;51.142;4.780;2022-11-20T06:13:19;5.20;99.90
15930;DHT22;8064;51.142;4.780;2022-11-20T06:15:52;5.20;99.90
15930;DHT22;8064;51.142;4.780;2022-11-20T06:18:18;5.20;99.90
15930;DHT22;8064;51.142;4.780;2022-11-20T06:20:44;5.20;99.90
15930;DHT22;8064;51.142;4.780;2022-11-20T06:23:10;5.20;99.90
15930;DHT22;8064;51.142;4.780;2022-11-20T06:25:40;5.20;99.90
15930;DHT22;8064;51.142;4.780;2022-11-20T06:28:06;5.20;99.90
15930;DHT22;8064;51.142;4.780;2022-11-20T06:30:32;5.20;99.90
15930;DHT22;8064;51.142;4.780;2022-11-20T06:32:58;5.20;99.90
15930;DHT22;8064;51.142;4.780;2022-11-20T06:35:23;5.20;99.90
15930;DHT22;8064;51.142;4.780;2022-11-20T06:37:49;5.20;99.90
15930;DHT22;8064;51.142;4.780;2022-11-20T06:40:15;5.20;99.90
15930;DHT22;8064;51.142;4.780;2022-11-20T06:42:41;5.20;99.90
15930;DHT22;8064;51.142;4.780;2022-11-20T06:45:07;5.20;99.90
15930;DHT22;8064;51.142;4.780;2022-11-20T06:47:33;5.20;99.90
15930;DHT22;8064;51.142;4.780;2022-11-20T06:49:58;5.20;99.90
15930;DHT22;8064;51.142;4.780;2022-11-20T06:52:24;5.20;99.90
15930;DHT22;8064;51.142;4.780;2022-11-20T06:54:50;5.20;99.90
15930;DHT22;8064;51.142;4.780;2022-11-20T06:57:16;5.20;99.90
15930;DHT22;8064;51.142;4.780;2022-11-20T06:59:41;5.20;99.90
15930;DHT22;8064;51.142;4.780;2022-11-20T07:02:13;5.20;99.90
15930;DHT22;8064;51.142;4.780;2022-11-20T07:04:39;5.20;99.90
15930;DHT22;8064;51.142;4.780;2022-11-20T07:07:05;5.20;99.90
15930;DHT22;8064;51.142;4.780;2022-11-20T07:09:32;5.20;99.90
15930;DHT22;8064;51.142;4.780;2022-11-20T07:11:58;5.20;99.90
15930;DHT22;8064;51.142;4.780;2022-11-20T07:14:24;5.20;99.90
15930;DHT22;8064;51.142;4.780;2022-11-20T07:16:50;5.20;99.90
15930;DHT22;8064;51.142;4.780;2022-11-20T07:19:15;5.20;99.90
15930;DHT22;8064;51.142;4.780;2022-11-20T07:21:41;5.30;99.90
15930;DHT22;8064;51.142;4.780;2022-11-20T07:24:07;5.30;99.90
15930;DHT22;8064;51.142;4.780;2022-11-20T07:26:33;5.30;99.90
15930;DHT22;8064;51.142;4.780;2022-11-20T07:28:58;5.30;99.90
15930;DHT22;8064;51.142;4.780;2022-11-20T07:31:24;5.30;99.90
15930;DHT22;8064;51.142;4.780;2022-11-20T07:33:50;5.30;99.90
15930;DHT22;8064;51.142;4.780;2022-11-20T07:36:15;5.30;99.90
15930;DHT22;8064;51.142;4.780;2022-11-20T07:38:41;5.40;99.90
15930;DHT22;8064;51.142;4.780;2022-11-20T07:41:07;5.40;99.90
15930;DHT22;8064;51.142;4.780;2022-11-20T07:43:32;5.40;99.90
15930;DHT22;8064;51.142;4.780;2022-11-20T07:45:58;5.50;99.90
15930;DHT22;8064;51.142;4.780;2022-11-20T07:48:25;5.50;99.90
15930;DHT22;8064;51.142;4.780;2022-11-20T07:50:57;5.50;99.90
15930;DHT22;8064;51.142;4.780;2022-11-20T07:53:23;5.50;99.90
15930;DHT22;8064;51.142;4.780;2022-11-20T07:55:49;5.50;99.90
15930;DHT22;8064;51.142;4.780;2022-11-20T07:58:18;5.50;99.90
15930;DHT22;8064;51.142;4.780;2022-11-20T08:00:45;5.60;99.90
15930;DHT22;8064;51.142;4.780;2022-11-20T08:03:11;5.60;99.90
15930;DHT22;8064;51.142;4.780;2022-11-20T08:05:36;5.60;99.90
15930;DHT22;8064;51.142;4.780;2022-11-20T08:08:02;5.50;99.90
15930;DHT22;8064;51.142;4.780;2022-11-20T08:10:28;5.50;99.90
15930;DHT22;8064;51.142;4.780;2022-11-20T08:12:55;5.50;99.90
15930;DHT22;8064;51.142;4.780;2022-11-20T08:15:40;5.50;99.90
15930;DHT22;8064;51.142;4.780;2022-11-20T08:18:09;5.50;99.90
15930;DHT22;8064;51.142;4.780;2022-11-20T08:20:36;5.50;99.90
15930;DHT22;8064;51.142;4.780;2022-11-20T08:23:07;5.50;99.90
15930;DHT22;8064;51.142;4.780;2022-11-20T08:25:34;5.50;99.90
15930;DHT22;8064;51.142;4.780;2022-11-20T08:28:03;5.50;99.90
15930;DHT22;8064;51.142;4.780;2022-11-20T08:30:29;5.60;99.90
15930;DHT22;8064;51.142;4.780;2022-11-20T08:32:59;5.60;99.90
15930;DHT22;8064;51.142;4.780;2022-11-20T08:35:26;5.60;99.90
15930;DHT22;8064;51.142;4.780;2022-11-20T08:37:52;5.60;99.90
15930;DHT22;8064;51.142;4.780;2022-11-20T08:40:17;5.60;99.90
15930;DHT22;8064;51.142;4.780;2022-11-20T08:42:50;5.70;99.90
15930;DHT22;8064;51.142;4.780;2022-11-20T08:45:17;5.70;99.90
15930;DHT22;8064;51.142;4.780;2022-11-20T08:47:43;5.80;99.90
15930;DHT22;8064;51.142;4.780;2022-11-20T08:50:11;5.80;99.90
15930;DHT22;8064;51.142;4.780;2022-11-20T08:52:37;5.90;99.90
15930;DHT22;8064;51.142;4.780;2022-11-20T08:55:04;5.90;99.90
15930;DHT22;8064;51.142;4.780;2022-11-20T08:57:36;6.00;99.90
15930;DHT22;8064;51.142;4.780;2022-11-20T09:00:06;6.00;99.90
15930;DHT22;8064;51.142;4.780;2022-11-20T09:02:32;6.00;99.90
15930;DHT22;8064;51.142;4.780;2022-11-20T09:04:58;6.10;99.90
15930;DHT22;8064;51.142;4.780;2022-11-20T09:07:24;6.00;99.90
15930;DHT22;8064;51.142;4.780;2022-11-20T09:09:49;6.10;99.90
15930;DHT22;8064;51.142;4.780;2022-11-20T09:12:15;6.10;99.90
15930;DHT22;8064;51.142;4.780;2022-11-20T09:14:41;6.10;99.90
15930;DHT22;8064;51.142;4.780;2022-11-20T09:17:07;6.10;99.90
15930;DHT22;8064;51.142;4.780;2022-11-20T09:19:33;6.10;99.90
15930;DHT22;8064;51.142;4.780;2022-11-20T09:21:59;6.20;99.90
15930;DHT22;8064;51.142;4.780;2022-11-20T09:24:26;6.20;99.90
15930;DHT22;8064;51.142;4.780;2022-11-20T09:26:52;6.20;99.90
15930;DHT22;8064;51.142;4.780;2022-11-20T09:29:17;6.20;99.90
15930;DHT22;8064;51.142;4.780;2022-11-20T09:31:43;6.30;99.90
15930;DHT22;8064;51.142;4.780;2022-11-20T09:34:09;6.20;99.90
15930;DHT22;8064;51.142;4.780;2022-11-20T09:36:35;6.30;99.90
15930;DHT22;8064;51.142;4.780;2022-11-20T09:39:01;6.30;99.90
15930;DHT22;8064;51.142;4.780;2022-11-20T09:41:49;6.30;99.90
15930;DHT22;8064;51.142;4.780;2022-11-20T09:47:01;6.30;99.90
15930;DHT22;8064;51.142;4.780;2022-11-20T09:52:22;6.30;99.90
15930;DHT22;8064;51.142;4.780;2022-11-20T09:54:50;6.30;99.90
15930;DHT22;8064;51.142;4.780;2022-11-20T09:57:23;6.40;99.90
15930;DHT22;8064;51.142;4.780;2022-11-20T09:59:55;6.40;99.90
15930;DHT22;8064;51.142;4.780;2022-11-20T10:05:12;6.40;99.90
15930;DHT22;8064;51.142;4.780;2022-11-20T10:08:07;6.50;99.90
15930;DHT22;8064;51.142;4.780;2022-11-20T10:10:46;6.50;99.90
15930;DHT22;8064;51.142;4.780;2022-11-20T10:16:42;6.60;99.90
15930;DHT22;8064;51.142;4.780;2022-11-20T10:19:52;6.60;99.90
15930;DHT22;8064;51.142;4.780;2022-11-20T10:25:04;6.80;99.90
15930;DHT22;8064;51.142;4.780;2022-11-20T10:27:58;6.80;99.90
15930;DHT22;8064;51.142;4.780;2022-11-20T10:30:31;6.80;99.90
15930;DHT22;8064;51.142;4.780;2022-11-20T10:33:06;6.80;99.90
15930;DHT22;8064;51.142;4.780;2022-11-20T10:35:42;6.90;99.90
15930;DHT22;8064;51.142;4.780;2022-11-20T10:38:29;6.90;99.90
15930;DHT22;8064;51.142;4.780;2022-11-20T10:41:00;7.00;99.90
15930;DHT22;8064;51.142;4.780;2022-11-20T10:43:46;7.00;99.90
15930;DHT22;8064;51.142;4.780;2022-11-20T10:46:23;7.00;99.90
15930;DHT22;8064;51.142;4.780;2022-11-20T10:48:51;7.00;99.90
15930;DHT22;8064;51.142;4.780;2022-11-20T10:51:47;7.10;99.90
15930;DHT22;8064;51.142;4.780;2022-11-20T10:58:00;7.10;99.90
15930;DHT22;8064;51.142;4.780;2022-11-20T11:00:23;7.10;99.90
15930;DHT22;8064;51.142;4.780;2022-11-20T11:02:51;7.20;99.90
15930;DHT22;8064;51.142;4.780;2022-11-20T11:07:56;7.30;99.90
15930;DHT22;8064;51.142;4.780;2022-11-20T11:10:53;7.30;99.90
15930;DHT22;8064;51.142;4.780;2022-11-20T11:13:26;7.40;99.90
15930;DHT22;8064;51.142;4.780;2022-11-20T11:15:53;7.40;99.90
15930;DHT22;8064;51.142;4.780;2022-11-20T11:18:32;7.40;99.90
15930;DHT22;8064;51.142;4.780;2022-11-20T11:21:05;7.50;99.90
15930;DHT22;8064;51.142;4.780;2022-11-20T11:23:39;7.60;99.90
15930;DHT22;8064;51.142;4.780;2022-11-20T11:26:06;7.60;99.90
15930;DHT22;8064;51.142;4.780;2022-11-20T11:28:33;7.70;99.90
15930;DHT22;8064;51.142;4.780;2022-11-20T11:30:59;7.80;99.90
15930;DHT22;8064;51.142;4.780;2022-11-20T11:33:30;7.80;99.90
15930;DHT22;8064;51.142;4.780;2022-11-20T11:35:59;7.90;99.90
15930;DHT22;8064;51.142;4.780;2022-11-20T11:40:57;8.10;99.90
15930;DHT22;8064;51.142;4.780;2022-11-20T11:43:29;8.20;99.90
15930;DHT22;8064;51.142;4.780;2022-11-20T11:46:27;8.30;99.90
15930;DHT22;8064;51.142;4.780;2022-11-20T11:54:11;8.50;99.90
15930;DHT22;8064;51.142;4.780;2022-11-20T11:56:40;8.60;99.90
15930;DHT22;8064;51.142;4.780;2022-11-20T11:59:14;8.70;99.90
15930;DHT22;8064;51.142;4.780;2022-11-20T12:01:48;8.70;99.90
15930;DHT22;8064;51.142;4.780;2022-11-20T12:04:46;8.70;99.90
15930;DHT22;8064;51.142;4.780;2022-11-20T12:07:22;8.70;99.90
15930;DHT22;8064;51.142;4.780;2022-11-20T12:09:53;8.70;99.90
15930;DHT22;8064;51.142;4.780;2022-11-20T12:12:27;8.70;99.90
15930;DHT22;8064;51.142;4.780;2022-11-20T12:14:56;8.70;99.90
15930;DHT22;8064;51.142;4.780;2022-11-20T12:17:22;8.80;99.90
15930;DHT22;8064;51.142;4.780;2022-11-20T12:19:48;8.80;99.90
15930;DHT22;8064;51.142;4.780;2022-11-20T12:30:27;9.00;99.90
15930;DHT22;8064;51.142;4.780;2022-11-20T13:07:12;9.30;99.90
15930;DHT22;8064;51.142;4.780;2022-11-20T13:09:50;9.30;99.90
15930;DHT22;8064;51.142;4.780;2022-11-20T13:14:59;9.30;99.90
15930;DHT22;8064;51.142;4.780;2022-11-20T13:18:02;9.30;99.90
15930;DHT22;8064;51.142;4.780;2022-11-20T13:20:27;9.30;99.90
15930;DHT22;8064;51.142;4.780;2022-11-20T13:22:55;9.30;99.90
15930;DHT22;8064;51.142;4.780;2022-11-20T13:27:52;9.30;99.90
15930;DHT22;8064;51.142;4.780;2022-11-20T13:30:23;9.30;99.90
15930;DHT22;8064;51.142;4.780;2022-11-20T13:32:57;9.20;99.90
15930;DHT22;8064;51.142;4.780;2022-11-20T13:35:32;9.20;99.90
15930;DHT22;8064;51.142;4.780;2022-11-20T13:40:33;9.20;99.90
15930;DHT22;8064;51.142;4.780;2022-11-20T13:43:37;9.20;99.90
15930;DHT22;8064;51.142;4.780;2022-11-20T13:46:06;9.20;99.90
15930;DHT22;8064;51.142;4.780;2022-11-20T13:48:38;9.20;99.90
15930;DHT22;8064;51.142;4.780;2022-11-20T13:56:43;9.20;99.90
15930;DHT22;8064;51.142;4.780;2022-11-20T14:02:01;9.10;99.90
15930;DHT22;8064;51.142;4.780;2022-11-20T14:04:30;9.10;99.90
15930;DHT22;8064;51.142;4.780;2022-11-20T14:06:58;9.10;99.90
15930;DHT22;8064;51.142;4.780;2022-11-20T14:09:29;9.10;99.90
15930;DHT22;8064;51.142;4.780;2022-11-20T14:11:56;9.10;99.90
15930;DHT22;8064;51.142;4.780;2022-11-20T14:14:24;9.10;99.90
15930;DHT22;8064;51.142;4.780;2022-11-20T14:16:51;9.00;99.90
15930;DHT22;8064;51.142;4.780;2022-11-20T14:21:47;9.00;99.90
15930;DHT22;8064;51.142;4.780;2022-11-20T14:24:14;9.00;99.90
15930;DHT22;8064;51.142;4.780;2022-11-20T14:26:44;8.90;99.90
15930;DHT22;8064;51.142;4.780;2022-11-20T14:29:16;8.90;99.90
15930;DHT22;8064;51.142;4.780;2022-11-20T14:31:44;8.90;99.90
15930;DHT22;8064;51.142;4.780;2022-11-20T14:34:22;8.90;99.90
15930;DHT22;8064;51.142;4.780;2022-11-20T14:36:58;9.00;99.90
15930;DHT22;8064;51.142;4.780;2022-11-20T14:39:40;9.00;99.90
15930;DHT22;8064;51.142;4.780;2022-11-20T14:42:21;9.00;99.90
15930;DHT22;8064;51.142;4.780;2022-11-20T14:44:50;9.00;99.90
15930;DHT22;8064;51.142;4.780;2022-11-20T14:47:22;9.00;99.90
15930;DHT22;8064;51.142;4.780;2022-11-20T14:49:49;9.00;99.90
15930;DHT22;8064;51.142;4.780;2022-11-20T14:52:27;9.00;99.90
15930;DHT22;8064;51.142;4.780;2022-11-20T14:54:57;9.00;99.90
15930;DHT22;8064;51.142;4.780;2022-11-20T14:57:33;9.00;99.90
15930;DHT22;8064;51.142;4.780;2022-11-20T15:02:47;9.10;99.90
15930;DHT22;8064;51.142;4.780;2022-11-20T15:05:16;9.00;99.90
15930;DHT22;8064;51.142;4.780;2022-11-20T15:07:44;9.00;99.90
15930;DHT22;8064;51.142;4.780;2022-11-20T15:12:52;9.00;99.90
15930;DHT22;8064;51.142;4.780;2022-11-20T15:15:31;9.00;99.90
15930;DHT22;8064;51.142;4.780;2022-11-20T15:17:59;9.00;99.90
15930;DHT22;8064;51.142;4.780;2022-11-20T15:20:31;9.00;99.90
15930;DHT22;8064;51.142;4.780;2022-11-20T15:22:57;9.00;99.90
15930;DHT22;8064;51.142;4.780;2022-11-20T15:25:23;9.00;99.90
15930;DHT22;8064;51.142;4.780;2022-11-20T15:27:54;9.00;99.90
15930;DHT22;8064;51.142;4.780;2022-11-20T15:30:22;9.00;99.90
15930;DHT22;8064;51.142;4.780;2022-11-20T15:32:48;8.90;99.90
15930;DHT22;8064;51.142;4.780;2022-11-20T15:35:15;8.90;99.90
15930;DHT22;8064;51.142;4.780;2022-11-20T15:37:41;8.90;99.90
15930;DHT22;8064;51.142;4.780;2022-11-20T15:40:08;8.90;99.90
15930;DHT22;8064;51.142;4.780;2022-11-20T15:42:34;8.90;99.90
15930;DHT22;8064;51.142;4.780;2022-11-20T15:45:00;8.90;99.90
15930;DHT22;8064;51.142;4.780;2022-11-20T15:47:35;8.90;99.90
15930;DHT22;8064;51.142;4.780;2022-11-20T15:50:01;8.90;99.90
15930;DHT22;8064;51.142;4.780;2022-11-20T15:52:27;8.90;99.90
15930;DHT22;8064;51.142;4.780;2022-11-20T15:54:53;8.90;99.90
15930;DHT22;8064;51.142;4.780;2022-11-20T15:57:19;9.00;99.90
15930;DHT22;8064;51.142;4.780;2022-11-20T15:59:44;8.90;99.90
15930;DHT22;8064;51.142;4.780;2022-11-20T16:02:16;8.90;99.90
15930;DHT22;8064;51.142;4.780;2022-11-20T16:04:42;8.90;99.90
15930;DHT22;8064;51.142;4.780;2022-11-20T16:07:08;8.90;99.90
15930;DHT22;8064;51.142;4.780;2022-11-20T16:09:33;9.00;99.90
15930;DHT22;8064;51.142;4.780;2022-11-20T16:11:59;9.00;99.90
15930;DHT22;8064;51.142;4.780;2022-11-20T16:14:26;9.00;99.90
15930;DHT22;8064;51.142;4.780;2022-11-20T16:17:11;9.00;99.90
15930;DHT22;8064;51.142;4.780;2022-11-20T16:19:37;9.00;99.90
15930;DHT22;8064;51.142;4.780;2022-11-20T16:22:03;9.00;99.90
15930;DHT22;8064;51.142;4.780;2022-11-20T16:24:29;9.00;99.90
15930;DHT22;8064;51.142;4.780;2022-11-20T16:26:55;9.00;99.90
15930;DHT22;8064;51.142;4.780;2022-11-20T16:29:20;9.00;99.90
15930;DHT22;8064;51.142;4.780;2022-11-20T16:31:46;9.00;99.90
15930;DHT22;8064;51.142;4.780;2022-11-20T16:34:12;9.00;99.90
15930;DHT22;8064;51.142;4.780;2022-11-20T16:36:40;9.00;99.90
15930;DHT22;8064;51.142;4.780;2022-11-20T16:39:08;9.00;99.90
15930;DHT22;8064;51.142;4.780;2022-11-20T16:41:34;9.00;99.90
15930;DHT22;8064;51.142;4.780;2022-11-20T16:44:02;9.00;99.90
15930;DHT22;8064;51.142;4.780;2022-11-20T16:46:31;9.00;99.90
15930;DHT22;8064;51.142;4.780;2022-11-20T16:48:59;9.10;99.90
15930;DHT22;8064;51.142;4.780;2022-11-20T16:51:26;9.10;99.90
15930;DHT22;8064;51.142;4.780;2022-11-20T16:53:53;9.10;99.90
15930;DHT22;8064;51.142;4.780;2022-11-20T16:56:24;9.10;99.90
15930;DHT22;8064;51.142;4.780;2022-11-20T16:58:51;9.10;99.90
15930;DHT22;8064;51.142;4.780;2022-11-20T17:01:20;9.10;99.90
15930;DHT22;8064;51.142;4.780;2022-11-20T17:03:54;9.10;99.90
15930;DHT22;8064;51.142;4.780;2022-11-20T17:06:22;9.10;99.90
15930;DHT22;8064;51.142;4.780;2022-11-20T17:08:48;9.10;99.90
15930;DHT22;8064;51.142;4.780;2022-11-20T17:11:17;9.10;99.90
15930;DHT22;8064;51.142;4.780;2022-11-20T17:13:43;9.10;99.90
15930;DHT22;8064;51.142;4.780;2022-11-20T17:16:14;9.10;99.90
15930;DHT22;8064;51.142;4.780;2022-11-20T17:18:40;9.00;99.90
15930;DHT22;8064;51.142;4.780;2022-11-20T17:21:06;9.00;99.90
15930;DHT22;8064;51.142;4.780;2022-11-20T17:23:37;9.00;99.90
15930;DHT22;8064;51.142;4.780;2022-11-20T17:28:33;9.00;99.90
15930;DHT22;8064;51.142;4.780;2022-11-20T17:31:00;9.00;99.90
15930;DHT22;8064;51.142;4.780;2022-11-20T17:33:26;9.00;99.90
15930;DHT22;8064;51.142;4.780;2022-11-20T17:35:52;9.00;99.90
15930;DHT22;8064;51.142;4.780;2022-11-20T17:38:18;9.00;99.90
15930;DHT22;8064;51.142;4.780;2022-11-20T17:40:44;9.10;99.90
15930;DHT22;8064;51.142;4.780;2022-11-20T17:43:10;9.10;99.90
15930;DHT22;8064;51.142;4.780;2022-11-20T17:45:36;9.10;99.90
15930;DHT22;8064;51.142;4.780;2022-11-20T17:48:02;9.10;99.90
15930;DHT22;8064;51.142;4.780;2022-11-20T17:50:28;9.10;99.90
15930;DHT22;8064;51.142;4.780;2022-11-20T17:52:53;9.10;99.90
15930;DHT22;8064;51.142;4.780;2022-11-20T17:55:19;9.10;99.90
15930;DHT22;8064;51.142;4.780;2022-11-20T17:57:45;9.00;99.90